sensor_id;sensor_type;location;lat;lon;timestamp;temperature;humidity
19947;DHT22;10135;50.702;7.276;2022-11-04T06:31:05;11.80;62.60
19947;DHT22;10135;50.702;7.276;2022-11-04T06:33:07;11.80;62.60
19947;DHT22;10135;50.702;7.276;2022-11-04T06:35:08;11.80;62.50
19947;DHT22;10135;50.702;7.276;2022-11-04T06:37:09;11.70;62.50
19947;DHT22;10135;50.702;7.276;2022-11-04T06:39:10;11.70;62.60
19947;DHT22;10135;50.702;7.276;2022-11-04T06:41:13;11.80;62.70
19947;DHT22;10135;50.702;7.276;2022-11-04T06:43:16;11.80;62.70
19947;DHT22;10135;50.702;7.276;2022-11-04T06:45:16;11.70;62.70
19947;DHT22;10135;50.702;7.276;2022-11-04T06:47:17;11.70;62.80
19947;DHT22;10135;50.702;7.276;2022-11-04T06:49:20;11.70;62.80
19947;DHT22;10135;50.702;7.276;2022-11-04T06:59:24;11.80;63.10
19947;DHT22;10135;50.702;7.276;2022-11-04T07:01:27;11.80;62.90
19947;DHT22;10135;50.702;7.276;2022-11-04T07:03:29;11.80;62.80
19947;DHT22;10135;50.702;7.276;2022-11-04T07:05:32;11.70;62.70
19947;DHT22;10135;50.702;7.276;2022-11-04T07:07:33;11.70;63.60
19947;DHT22;10135;50.702;7.276;2022-11-04T07:09:34;11.70;62.90
19947;DHT22;10135;50.702;7.276;2022-11-04T07:11:34;11.70;63.00
19947;DHT22;10135;50.702;7.276;2022-11-04T07:13:35;11.80;63.10
19947;DHT22;10135;50.702;7.276;2022-11-04T07:15:37;11.80;63.10
19947;DHT22;10135;50.702;7.276;2022-11-04T07:17:39;11.80;63.30
19947;DHT22;10135;50.702;7.276;2022-11-04T07:19:39;11.90;63.20
19947;DHT22;10135;50.702;7.276;2022-11-04T07:21:40;11.90;63.30
19947;DHT22;10135;50.702;7.276;2022-11-04T07:23:41;11.90;63.30
19947;DHT22;10135;50.702;7.276;2022-11-04T07:25:41;12.00;63.40
19947;DHT22;10135;50.702;7.276;2022-11-04T07:27:42;12.00;63.40
19947;DHT22;10135;50.702;7.276;2022-11-04T07:29:43;12.10;63.50
19947;DHT22;10135;50.702;7.276;2022-11-04T07:31:43;12.10;63.50
19947;DHT22;10135;50.702;7.276;2022-11-04T07:33:44;12.20;63.60
19947;DHT22;10135;50.702;7.276;2022-11-04T07:35:49;12.20;63.50
19947;DHT22;10135;50.702;7.276;2022-11-04T07:37:50;12.30;63.60
19947;DHT22;10135;50.702;7.276;2022-11-04T07:39:50;12.30;63.50
19947;DHT22;10135;50.702;7.276;2022-11-04T07:41:51;12.40;63.40
19947;DHT22;10135;50.702;7.276;2022-11-04T07:43:52;12.40;63.50
19947;DHT22;10135;50.702;7.276;2022-11-04T07:46:05;12.50;63.40
19947;DHT22;10135;50.702;7.276;2022-11-04T07:48:10;12.50;63.60
19947;DHT22;10135;50.702;7.276;2022-11-04T07:50:11;12.50;63.40
19947;DHT22;10135;50.702;7.276;2022-11-04T07:52:12;12.50;63.40
19947;DHT22;10135;50.702;7.276;2022-11-04T07:54:13;12.60;63.50
19947;DHT22;10135;50.702;7.276;2022-11-04T07:56:14;12.60;63.40
19947;DHT22;10135;50.702;7.276;2022-11-04T07:58:15;12.70;63.50
19947;DHT22;10135;50.702;7.276;2022-11-04T08:00:17;12.70;63.60
19947;DHT22;10135;50.702;7.276;2022-11-04T08:02:18;12.80;63.60
19947;DHT22;10135;50.702;7.276;2022-11-04T08:04:19;12.80;63.60
19947;DHT22;10135;50.702;7.276;2022-11-04T08:06:21;12.90;63.60
19947;DHT22;10135;50.702;7.276;2022-11-04T08:08:21;13.00;63.60
19947;DHT22;10135;50.702;7.276;2022-11-04T08:10:22;13.00;63.60
19947;DHT22;10135;50.702;7.276;2022-11-04T08:12:23;13.10;63.60
19947;DHT22;10135;50.702;7.276;2022-11-04T08:14:23;13.20;63.60
19947;DHT22;10135;50.702;7.276;2022-11-04T08:16:24;13.20;63.60
19947;DHT22;10135;50.702;7.276;2022-11-04T08:18:25;13.20;63.50
19947;DHT22;10135;50.702;7.276;2022-11-04T08:20:26;13.30;63.40
19947;DHT22;10135;50.702;7.276;2022-11-04T08:22:29;13.30;63.40
19947;DHT22;10135;50.702;7.276;2022-11-04T08:24:30;13.40;63.50
19947;DHT22;10135;50.702;7.276;2022-11-04T08:26:30;13.50;63.50
19947;DHT22;10135;50.702;7.276;2022-11-04T08:28:31;13.50;63.40
19947;DHT22;10135;50.702;7.276;2022-11-04T08:30:32;13.50;63.40
19947;DHT22;10135;50.702;7.276;2022-11-04T08:32:32;13.60;63.40
19947;DHT22;10135;50.702;7.276;2022-11-04T08:34:34;13.60;63.40
19947;DHT22;10135;50.702;7.276;2022-11-04T08:36:37;13.70;63.40
19947;DHT22;10135;50.702;7.276;2022-11-04T08:38:40;13.70;63.50
19947;DHT22;10135;50.702;7.276;2022-11-04T08:40:41;13.70;63.30
19947;DHT22;10135;50.702;7.276;2022-11-04T08:42:42;13.70;63.40
19947;DHT22;10135;50.702;7.276;2022-11-04T08:44:42;13.80;63.40
19947;DHT22;10135;50.702;7.276;2022-11-04T08:46:44;13.80;63.40
19947;DHT22;10135;50.702;7.276;2022-11-04T08:48:46;13.80;63.40
19947;DHT22;10135;50.702;7.276;2022-11-04T08:50:50;13.90;63.30
19947;DHT22;10135;50.702;7.276;2022-11-04T08:52:53;13.90;63.30
19947;DHT22;10135;50.702;7.276;2022-11-04T08:54:54;13.90;63.30
19947;DHT22;10135;50.702;7.276;2022-11-04T08:56:54;13.90;63.30
19947;DHT22;10135;50.702;7.276;2022-11-04T08:58:59;13.90;63.20
19947;DHT22;10135;50.702;7.276;2022-11-04T09:04:59;14.00;63.60
19947;DHT22;10135;50.702;7.276;2022-11-04T09:16:58;14.00;63.60
19947;DHT22;10135;50.702;7.276;2022-11-04T09:24:28;14.10;63.60
19947;DHT22;10135;50.702;7.276;2022-11-04T09:37:48;14.50;64.00
19947;DHT22;10135;50.702;7.276;2022-11-04T09:40:24;14.70;63.70
19947;DHT22;10135;50.702;7.276;2022-11-04T10:06:52;15.50;62.90
19947;DHT22;10135;50.702;7.276;2022-11-04T10:09:13;15.50;62.90
19947;DHT22;10135;50.702;7.276;2022-11-04T10:18:50;15.60;62.10
19947;DHT22;10135;50.702;7.276;2022-11-04T10:23:43;15.60;61.90
19947;DHT22;10135;50.702;7.276;2022-11-04T10:25:56;15.60;61.90
19947;DHT22;10135;50.702;7.276;2022-11-04T10:28:06;15.60;62.00
19947;DHT22;10135;50.702;7.276;2022-11-04T10:38:04;15.60;61.70
19947;DHT22;10135;50.702;7.276;2022-11-04T10:49:44;15.70;61.60
19947;DHT22;10135;50.702;7.276;2022-11-04T10:52:13;15.70;61.80
19947;DHT22;10135;50.702;7.276;2022-11-04T10:54:26;15.70;61.70
19947;DHT22;10135;50.702;7.276;2022-11-04T10:56:48;15.70;61.60
19947;DHT22;10135;50.702;7.276;2022-11-04T10:59:03;15.70;61.70
19947;DHT22;10135;50.702;7.276;2022-11-04T11:01:34;15.80;61.80
19947;DHT22;10135;50.702;7.276;2022-11-04T11:03:56;15.80;61.30
19947;DHT22;10135;50.702;7.276;2022-11-04T11:06:21;15.80;61.70
19947;DHT22;10135;50.702;7.276;2022-11-04T11:08:36;15.80;61.20
19947;DHT22;10135;50.702;7.276;2022-11-04T11:10:37;15.80;61.60
19947;DHT22;10135;50.702;7.276;2022-11-04T11:12:56;15.80;61.60
19947;DHT22;10135;50.702;7.276;2022-11-04T11:15:28;15.90;61.50
19947;DHT22;10135;50.702;7.276;2022-11-04T11:17:35;15.90;61.20
19947;DHT22;10135;50.702;7.276;2022-11-04T11:19:48;15.90;61.50
19947;DHT22;10135;50.702;7.276;2022-11-04T11:29:03;16.00;61.40
19947;DHT22;10135;50.702;7.276;2022-11-04T11:32:33;16.00;61.00
19947;DHT22;10135;50.702;7.276;2022-11-04T11:34:42;16.00;61.00
19947;DHT22;10135;50.702;7.276;2022-11-04T11:51:35;16.30;60.60
19947;DHT22;10135;50.702;7.276;2022-11-04T11:56:43;16.30;60.50
19947;DHT22;10135;50.702;7.276;2022-11-04T11:58:52;16.40;60.90
19947;DHT22;10135;50.702;7.276;2022-11-04T12:04:05;16.60;60.40
19947;DHT22;10135;50.702;7.276;2022-11-04T12:08:29;16.80;60.20
19947;DHT22;10135;50.702;7.276;2022-11-04T12:10:45;16.80;60.60
19947;DHT22;10135;50.702;7.276;2022-11-04T12:13:04;16.90;59.90
19947;DHT22;10135;50.702;7.276;2022-11-04T12:15:40;16.90;59.70
19947;DHT22;10135;50.702;7.276;2022-11-04T12:20:57;16.90;60.10
19947;DHT22;10135;50.702;7.276;2022-11-04T12:26:01;16.90;59.30
19947;DHT22;10135;50.702;7.276;2022-11-04T12:28:42;16.90;59.40
19947;DHT22;10135;50.702;7.276;2022-11-04T12:33:13;16.90;59.80
19947;DHT22;10135;50.702;7.276;2022-11-04T12:36:08;16.80;59.70
19947;DHT22;10135;50.702;7.276;2022-11-04T12:38:29;16.80;59.20
19947;DHT22;10135;50.702;7.276;2022-11-04T12:43:08;16.70;59.20
19947;DHT22;10135;50.702;7.276;2022-11-04T12:45:33;16.70;59.70
19947;DHT22;10135;50.702;7.276;2022-11-04T12:47:43;16.70;59.40
19947;DHT22;10135;50.702;7.276;2022-11-04T12:52:49;16.60;59.00
19947;DHT22;10135;50.702;7.276;2022-11-04T12:58:01;16.60;59.20
19947;DHT22;10135;50.702;7.276;2022-11-04T13:00:11;16.50;59.30
19947;DHT22;10135;50.702;7.276;2022-11-04T13:04:48;16.40;59.40
19947;DHT22;10135;50.702;7.276;2022-11-04T13:07:02;16.40;59.40
19947;DHT22;10135;50.702;7.276;2022-11-04T13:09:15;16.40;59.40
19947;DHT22;10135;50.702;7.276;2022-11-04T13:11:43;16.40;59.40
19947;DHT22;10135;50.702;7.276;2022-11-04T13:14:20;16.40;59.30
19947;DHT22;10135;50.702;7.276;2022-11-04T13:16:32;16.30;59.50
19947;DHT22;10135;50.702;7.276;2022-11-04T13:18:39;16.30;59.60
19947;DHT22;10135;50.702;7.276;2022-11-04T13:21:01;16.30;59.70
19947;DHT22;10135;50.702;7.276;2022-11-04T13:23:11;16.20;59.70
19947;DHT22;10135;50.702;7.276;2022-11-04T13:25:38;16.20;59.80
19947;DHT22;10135;50.702;7.276;2022-11-04T13:27:45;16.20;59.90
19947;DHT22;10135;50.702;7.276;2022-11-04T13:29:48;16.10;59.90
19947;DHT22;10135;50.702;7.276;2022-11-04T13:37:29;16.10;60.20
19947;DHT22;10135;50.702;7.276;2022-11-04T13:39:56;16.10;60.30
19947;DHT22;10135;50.702;7.276;2022-11-04T13:44:50;16.00;60.50
19947;DHT22;10135;50.702;7.276;2022-11-04T13:46:56;16.00;60.40
19947;DHT22;10135;50.702;7.276;2022-11-04T13:49:02;15.90;60.40
19947;DHT22;10135;50.702;7.276;2022-11-04T13:51:17;15.90;60.50
19947;DHT22;10135;50.702;7.276;2022-11-04T13:53:19;15.80;60.50
19947;DHT22;10135;50.702;7.276;2022-11-04T13:55:20;15.80;60.60
19947;DHT22;10135;50.702;7.276;2022-11-04T13:57:23;15.80;60.60
19947;DHT22;10135;50.702;7.276;2022-11-04T13:59:28;15.80;60.70
19947;DHT22;10135;50.702;7.276;2022-11-04T14:01:32;15.80;60.80
19947;DHT22;10135;50.702;7.276;2022-11-04T14:10:00;15.70;61.10
19947;DHT22;10135;50.702;7.276;2022-11-04T14:14:18;15.80;61.20
19947;DHT22;10135;50.702;7.276;2022-11-04T14:18:34;15.80;61.20
19947;DHT22;10135;50.702;7.276;2022-11-04T14:21:10;15.80;61.10
19947;DHT22;10135;50.702;7.276;2022-11-04T14:23:21;15.80;61.00
19947;DHT22;10135;50.702;7.276;2022-11-04T14:27:40;15.80;61.00
19947;DHT22;10135;50.702;7.276;2022-11-04T14:29:48;15.80;60.80
19947;DHT22;10135;50.702;7.276;2022-11-04T14:31:56;15.80;60.70
19947;DHT22;10135;50.702;7.276;2022-11-04T14:33:58;15.80;60.60
19947;DHT22;10135;50.702;7.276;2022-11-04T14:38:27;15.80;60.60
19947;DHT22;10135;50.702;7.276;2022-11-04T14:40:46;15.80;60.60
19947;DHT22;10135;50.702;7.276;2022-11-04T14:42:55;15.80;60.50
19947;DHT22;10135;50.702;7.276;2022-11-04T14:44:57;15.80;60.60
19947;DHT22;10135;50.702;7.276;2022-11-04T14:47:17;15.80;60.60
19947;DHT22;10135;50.702;7.276;2022-11-04T14:51:41;15.80;60.60
19947;DHT22;10135;50.702;7.276;2022-11-04T14:53:42;15.70;60.60
19947;DHT22;10135;50.702;7.276;2022-11-04T14:55:43;15.70;60.60
19947;DHT22;10135;50.702;7.276;2022-11-04T14:57:46;15.70;60.60
19947;DHT22;10135;50.702;7.276;2022-11-04T14:59:48;15.70;60.60
19947;DHT22;10135;50.702;7.276;2022-11-04T15:01:52;15.70;60.60
19947;DHT22;10135;50.702;7.276;2022-11-04T15:03:57;15.70;60.60
19947;DHT22;10135;50.702;7.276;2022-11-04T15:06:06;15.70;60.60
19947;DHT22;10135;50.702;7.276;2022-11-04T15:08:34;15.70;60.60
19947;DHT22;10135;50.702;7.276;2022-11-04T15:10:41;15.60;60.60
19947;DHT22;10135;50.702;7.276;2022-11-04T15:12:44;15.60;60.60
19947;DHT22;10135;50.702;7.276;2022-11-04T15:14:51;15.60;60.80
19947;DHT22;10135;50.702;7.276;2022-11-04T15:16:56;15.50;61.50
19947;DHT22;10135;50.702;7.276;2022-11-04T15:18:58;15.50;60.90
19947;DHT22;10135;50.702;7.276;2022-11-04T15:21:03;15.50;60.90
19947;DHT22;10135;50.702;7.276;2022-11-04T15:23:11;15.50;61.10
19947;DHT22;10135;50.702;7.276;2022-11-04T15:25:14;15.40;61.00
19947;DHT22;10135;50.702;7.276;2022-11-04T15:27:16;15.40;61.00
19947;DHT22;10135;50.702;7.276;2022-11-04T15:29:21;15.40;61.10
19947;DHT22;10135;50.702;7.276;2022-11-04T15:31:25;15.40;62.00
19947;DHT22;10135;50.702;7.276;2022-11-04T15:33:28;15.30;61.20
19947;DHT22;10135;50.702;7.276;2022-11-04T15:35:32;15.30;61.20
19947;DHT22;10135;50.702;7.276;2022-11-04T15:37:34;15.20;61.30
19947;DHT22;10135;50.702;7.276;2022-11-04T15:39:43;15.20;61.20
19947;DHT22;10135;50.702;7.276;2022-11-04T15:41:45;15.20;61.30
19947;DHT22;10135;50.702;7.276;2022-11-04T15:44:25;15.20;61.30
19947;DHT22;10135;50.702;7.276;2022-11-04T15:46:31;15.10;61.50
19947;DHT22;10135;50.702;7.276;2022-11-04T15:48:33;15.10;61.30
19947;DHT22;10135;50.702;7.276;2022-11-04T15:50:37;15.10;61.40
19947;DHT22;10135;50.702;7.276;2022-11-04T15:52:47;15.10;61.50
19947;DHT22;10135;50.702;7.276;2022-11-04T15:54:56;15.00;61.60
19947;DHT22;10135;50.702;7.276;2022-11-04T15:57:01;15.00;61.60
19947;DHT22;10135;50.702;7.276;2022-11-04T15:59:08;15.00;61.60
19947;DHT22;10135;50.702;7.276;2022-11-04T16:01:16;15.00;61.70
19947;DHT22;10135;50.702;7.276;2022-11-04T16:03:19;14.90;61.60
19947;DHT22;10135;50.702;7.276;2022-11-04T16:05:26;14.90;61.70
19947;DHT22;10135;50.702;7.276;2022-11-04T16:07:34;14.90;61.90
19947;DHT22;10135;50.702;7.276;2022-11-04T16:09:46;14.90;61.90
19947;DHT22;10135;50.702;7.276;2022-11-04T16:12:11;14.80;61.90
19947;DHT22;10135;50.702;7.276;2022-11-04T16:14:22;14.80;62.30
19947;DHT22;10135;50.702;7.276;2022-11-04T16:16:26;14.80;62.10
19947;DHT22;10135;50.702;7.276;2022-11-04T16:18:47;14.80;62.00
19947;DHT22;10135;50.702;7.276;2022-11-04T16:20:57;14.80;62.50
19947;DHT22;10135;50.702;7.276;2022-11-04T16:23:02;14.70;62.10
19947;DHT22;10135;50.702;7.276;2022-11-04T16:25:05;14.80;62.10
19947;DHT22;10135;50.702;7.276;2022-11-04T16:27:12;14.70;62.10
19947;DHT22;10135;50.702;7.276;2022-11-04T16:29:23;14.80;62.30
19947;DHT22;10135;50.702;7.276;2022-11-04T16:31:32;14.70;62.50
19947;DHT22;10135;50.702;7.276;2022-11-04T16:33:34;14.70;62.50
19947;DHT22;10135;50.702;7.276;2022-11-04T16:35:35;14.70;62.30
19947;DHT22;10135;50.702;7.276;2022-11-04T16:37:41;14.70;62.30
19947;DHT22;10135;50.702;7.276;2022-11-04T16:39:43;14.70;62.30
19947;DHT22;10135;50.702;7.276;2022-11-04T16:41:44;14.70;62.30
19947;DHT22;10135;50.702;7.276;2022-11-04T16:43:46;14.70;63.10
19947;DHT22;10135;50.702;7.276;2022-11-04T16:45:49;14.60;62.30
19947;DHT22;10135;50.702;7.276;2022-11-04T16:47:50;14.60;62.20
19947;DHT22;10135;50.702;7.276;2022-11-04T16:49:52;14.60;62.20
19947;DHT22;10135;50.702;7.276;2022-11-04T16:51:55;14.50;62.10
19947;DHT22;10135;50.702;7.276;2022-11-04T16:54:00;14.50;62.20
19947;DHT22;10135;50.702;7.276;2022-11-04T16:56:01;14.40;62.00
19947;DHT22;10135;50.702;7.276;2022-11-04T16:58:03;14.40;62.20
19947;DHT22;10135;50.702;7.276;2022-11-04T17:00:05;14.30;62.20
19947;DHT22;10135;50.702;7.276;2022-11-04T17:04:27;14.30;62.50
19947;DHT22;10135;50.702;7.276;2022-11-04T17:06:28;14.20;62.20
19947;DHT22;10135;50.702;7.276;2022-11-04T17:08:29;14.20;62.20
19947;DHT22;10135;50.702;7.276;2022-11-04T17:10:33;14.10;62.30
19947;DHT22;10135;50.702;7.276;2022-11-04T17:12:35;14.10;62.50
19947;DHT22;10135;50.702;7.276;2022-11-04T17:14:37;14.10;63.20
19947;DHT22;10135;50.702;7.276;2022-11-04T17:16:37;14.10;62.50
19947;DHT22;10135;50.702;7.276;2022-11-04T17:18:38;14.00;62.50
19947;DHT22;10135;50.702;7.276;2022-11-04T17:20:44;14.00;62.50
19947;DHT22;10135;50.702;7.276;2022-11-04T17:22:48;14.00;62.70
19947;DHT22;10135;50.702;7.276;2022-11-04T17:24:49;14.00;62.50
19947;DHT22;10135;50.702;7.276;2022-11-04T17:26:50;14.00;62.60
19947;DHT22;10135;50.702;7.276;2022-11-04T17:28:50;13.90;62.70
19947;DHT22;10135;50.702;7.276;2022-11-04T17:30:51;13.90;62.70
19947;DHT22;10135;50.702;7.276;2022-11-04T17:32:52;13.90;62.70
19947;DHT22;10135;50.702;7.276;2022-11-04T17:34:52;13.90;62.80
19947;DHT22;10135;50.702;7.276;2022-11-04T17:36:53;13.90;62.90
19947;DHT22;10135;50.702;7.276;2022-11-04T17:38:54;13.90;62.90
19947;DHT22;10135;50.702;7.276;2022-11-04T17:40:55;13.90;62.90
19947;DHT22;10135;50.702;7.276;2022-11-04T17:43:14;13.80;63.00
19947;DHT22;10135;50.702;7.276;2022-11-04T17:45:33;13.80;63.00
19947;DHT22;10135;50.702;7.276;2022-11-04T17:47:35;13.80;63.00
19947;DHT22;10135;50.702;7.276;2022-11-04T17:49:36;13.80;63.10
19947;DHT22;10135;50.702;7.276;2022-11-04T17:51:39;13.90;63.20
19947;DHT22;10135;50.702;7.276;2022-11-04T17:53:42;13.80;63.20
19947;DHT22;10135;50.702;7.276;2022-11-04T17:55:42;13.80;63.20
19947;DHT22;10135;50.702;7.276;2022-11-04T17:57:43;13.80;63.20
19947;DHT22;10135;50.702;7.276;2022-11-04T17:59:44;13.80;63.20
19947;DHT22;10135;50.702;7.276;2022-11-04T18:01:45;13.80;63.20
19947;DHT22;10135;50.702;7.276;2022-11-04T18:03:46;13.80;63.40
19947;DHT22;10135;50.702;7.276;2022-11-04T18:05:46;13.80;63.30
19947;DHT22;10135;50.702;7.276;2022-11-04T18:07:47;13.80;63.40
19947;DHT22;10135;50.702;7.276;2022-11-04T18:09:48;13.80;63.40
19947;DHT22;10135;50.702;7.276;2022-11-04T18:11:49;13.80;63.40
19947;DHT22;10135;50.702;7.276;2022-11-04T18:14:09;13.80;63.40
19947;DHT22;10135;50.702;7.276;2022-11-04T18:16:11;13.80;63.40
19947;DHT22;10135;50.702;7.276;2022-11-04T18:18:12;13.80;63.60
19947;DHT22;10135;50.702;7.276;2022-11-04T18:20:14;13.70;63.50
19947;DHT22;10135;50.702;7.276;2022-11-04T18:22:15;13.70;63.50
19947;DHT22;10135;50.702;7.276;2022-11-04T18:24:16;13.70;63.50
19947;DHT22;10135;50.702;7.276;2022-11-04T18:26:17;13.70;63.50
19947;DHT22;10135;50.702;7.276;2022-11-04T18:28:18;13.70;63.60
19947;DHT22;10135;50.702;7.276;2022-11-04T18:30:18;13.70;63.70
19947;DHT22;10135;50.702;7.276;2022-11-04T18:32:19;13.70;63.70
19947;DHT22;10135;50.702;7.276;2022-11-04T18:34:20;13.70;63.60
19947;DHT22;10135;50.702;7.276;2022-11-04T18:36:21;13.70;63.70
19947;DHT22;10135;50.702;7.276;2022-11-04T18:38:21;13.70;63.70
19947;DHT22;10135;50.702;7.276;2022-11-04T18:40:22;13.70;63.70
19947;DHT22;10135;50.702;7.276;2022-11-04T18:42:25;13.70;63.80
19947;DHT22;10135;50.702;7.276;2022-11-04T18:44:25;13.70;63.80
19947;DHT22;10135;50.702;7.276;2022-11-04T18:46:26;13.70;63.80
19947;DHT22;10135;50.702;7.276;2022-11-04T18:48:27;13.70;63.90
19947;DHT22;10135;50.702;7.276;2022-11-04T18:50:27;13.70;63.80
19947;DHT22;10135;50.702;7.276;2022-11-04T18:52:29;13.70;63.90
19947;DHT22;10135;50.702;7.276;2022-11-04T18:54:30;13.70;63.80
19947;DHT22;10135;50.702;7.276;2022-11-04T18:56:30;13.60;63.70
19947;DHT22;10135;50.702;7.276;2022-11-04T18:58:32;13.60;63.80
19947;DHT22;10135;50.702;7.276;2022-11-04T19:00:35;13.60;63.90
19947;DHT22;10135;50.702;7.276;2022-11-04T19:02:39;13.60;63.80
19947;DHT22;10135;50.702;7.276;2022-11-04T19:04:39;13.60;63.90
19947;DHT22;10135;50.702;7.276;2022-11-04T19:06:42;13.60;63.90
19947;DHT22;10135;50.702;7.276;2022-11-04T19:08:44;13.60;64.10
19947;DHT22;10135;50.702;7.276;2022-11-04T19:10:45;13.60;64.00
19947;DHT22;10135;50.702;7.276;2022-11-04T19:12:46;13.60;64.00
19947;DHT22;10135;50.702;7.276;2022-11-04T19:15:05;13.60;64.10
19947;DHT22;10135;50.702;7.276;2022-11-04T19:17:06;13.60;64.00
19947;DHT22;10135;50.702;7.276;2022-11-04T19:19:10;13.50;64.00
19947;DHT22;10135;50.702;7.276;2022-11-04T19:21:13;13.50;64.10
19947;DHT22;10135;50.702;7.276;2022-11-04T19:23:14;13.50;64.10
19947;DHT22;10135;50.702;7.276;2022-11-04T19:25:15;13.50;64.10
19947;DHT22;10135;50.702;7.276;2022-11-04T19:27:16;13.50;64.10
19947;DHT22;10135;50.702;7.276;2022-11-04T19:29:18;13.50;64.10
19947;DHT22;10135;50.702;7.276;2022-11-04T19:31:22;13.50;64.10
19947;DHT22;10135;50.702;7.276;2022-11-04T19:33:25;13.50;64.20
19947;DHT22;10135;50.702;7.276;2022-11-04T19:35:26;13.50;64.20
19947;DHT22;10135;50.702;7.276;2022-11-04T19:37:28;13.40;64.20
19947;DHT22;10135;50.702;7.276;2022-11-04T19:39:28;13.50;64.20
19947;DHT22;10135;50.702;7.276;2022-11-04T19:41:29;13.50;64.40
19947;DHT22;10135;50.702;7.276;2022-11-04T19:43:48;13.50;64.40
19947;DHT22;10135;50.702;7.276;2022-11-04T19:45:49;13.40;64.30
19947;DHT22;10135;50.702;7.276;2022-11-04T19:47:50;13.50;64.50
19947;DHT22;10135;50.702;7.276;2022-11-04T19:49:50;13.50;64.40
19947;DHT22;10135;50.702;7.276;2022-11-04T19:51:51;13.40;64.40
19947;DHT22;10135;50.702;7.276;2022-11-04T19:53:52;13.40;64.40
19947;DHT22;10135;50.702;7.276;2022-11-04T19:55:53;13.40;64.40
19947;DHT22;10135;50.702;7.276;2022-11-04T19:57:54;13.40;64.40
19947;DHT22;10135;50.702;7.276;2022-11-04T19:59:55;13.40;64.50
19947;DHT22;10135;50.702;7.276;2022-11-04T20:01:56;13.40;64.40
19947;DHT22;10135;50.702;7.276;2022-11-04T20:03:57;13.40;64.50
19947;DHT22;10135;50.702;7.276;2022-11-04T20:05:58;13.40;64.40
19947;DHT22;10135;50.702;7.276;2022-11-04T20:07:58;13.30;64.50
19947;DHT22;10135;50.702;7.276;2022-11-04T20:09:59;13.40;64.50
19947;DHT22;10135;50.702;7.276;2022-11-04T20:12:00;13.30;64.50
19947;DHT22;10135;50.702;7.276;2022-11-04T20:14:19;13.40;64.60
19947;DHT22;10135;50.702;7.276;2022-11-04T20:16:21;13.30;64.50
19947;DHT22;10135;50.702;7.276;2022-11-04T20:18:30;13.30;64.60
19947;DHT22;10135;50.702;7.276;2022-11-04T20:20:31;13.30;64.60
19947;DHT22;10135;50.702;7.276;2022-11-04T20:22:31;13.30;64.60
19947;DHT22;10135;50.702;7.276;2022-11-04T20:24:32;13.30;64.80
19947;DHT22;10135;50.702;7.276;2022-11-04T20:26:35;13.30;64.80
19947;DHT22;10135;50.702;7.276;2022-11-04T20:28:37;13.40;65.00
19947;DHT22;10135;50.702;7.276;2022-11-04T20:30:38;13.40;65.00
19947;DHT22;10135;50.702;7.276;2022-11-04T20:32:40;13.40;65.00
19947;DHT22;10135;50.702;7.276;2022-11-04T20:34:41;13.40;65.00
19947;DHT22;10135;50.702;7.276;2022-11-04T20:36:42;13.40;65.00
19947;DHT22;10135;50.702;7.276;2022-11-04T20:38:43;13.40;65.00
19947;DHT22;10135;50.702;7.276;2022-11-04T20:40:46;13.40;64.80
19947;DHT22;10135;50.702;7.276;2022-11-04T20:42:47;13.40;64.80
19947;DHT22;10135;50.702;7.276;2022-11-04T20:44:48;13.40;64.70
19947;DHT22;10135;50.702;7.276;2022-11-04T20:46:49;13.40;64.80
19947;DHT22;10135;50.702;7.276;2022-11-04T20:48:51;13.40;64.80
19947;DHT22;10135;50.702;7.276;2022-11-04T20:50:52;13.40;64.90
19947;DHT22;10135;50.702;7.276;2022-11-04T20:52:52;13.40;65.00
19947;DHT22;10135;50.702;7.276;2022-11-04T20:54:53;13.40;65.00
19947;DHT22;10135;50.702;7.276;2022-11-04T20:56:53;13.40;65.10
19947;DHT22;10135;50.702;7.276;2022-11-04T20:58:55;13.40;65.10
19947;DHT22;10135;50.702;7.276;2022-11-04T21:01:06;13.40;65.20
19947;DHT22;10135;50.702;7.276;2022-11-04T21:03:12;13.40;65.40
19947;DHT22;10135;50.702;7.276;2022-11-04T21:05:13;13.40;65.20
19947;DHT22;10135;50.702;7.276;2022-11-04T21:07:14;13.50;65.40
19947;DHT22;10135;50.702;7.276;2022-11-04T21:09:19;13.50;65.40
19947;DHT22;10135;50.702;7.276;2022-11-04T21:11:20;13.50;65.40
19947;DHT22;10135;50.702;7.276;2022-11-04T21:13:21;13.50;65.40
19947;DHT22;10135;50.702;7.276;2022-11-04T21:15:22;13.50;65.40
19947;DHT22;10135;50.702;7.276;2022-11-04T21:17:41;13.50;65.30
19947;DHT22;10135;50.702;7.276;2022-11-04T21:19:41;13.50;65.40
19947;DHT22;10135;50.702;7.276;2022-11-04T21:21:43;13.50;65.30
19947;DHT22;10135;50.702;7.276;2022-11-04T21:23:45;13.50;65.40
19947;DHT22;10135;50.702;7.276;2022-11-04T21:27:58;13.60;65.40
19947;DHT22;10135;50.702;7.276;2022-11-04T21:29:58;13.50;65.30
19947;DHT22;10135;50.702;7.276;2022-11-04T21:31:59;13.50;65.40
19947;DHT22;10135;50.702;7.276;2022-11-04T21:34:00;13.50;65.30
19947;DHT22;10135;50.702;7.276;2022-11-04T21:36:04;13.50;65.40
19947;DHT22;10135;50.702;7.276;2022-11-04T21:38:09;13.50;65.50
19947;DHT22;10135;50.702;7.276;2022-11-04T21:40:13;13.50;65.40
19947;DHT22;10135;50.702;7.276;2022-11-04T21:42:13;13.60;65.50
19947;DHT22;10135;50.702;7.276;2022-11-04T21:44:14;13.60;65.50
19947;DHT22;10135;50.702;7.276;2022-11-04T21:46:15;13.60;65.60
19947;DHT22;10135;50.702;7.276;2022-11-04T21:48:15;13.60;65.60
19947;DHT22;10135;50.702;7.276;2022-11-04T21:50:16;13.60;65.60
19947;DHT22;10135;50.702;7.276;2022-11-04T21:52:17;13.60;65.60
19947;DHT22;10135;50.702;7.276;2022-11-04T21:54:18;13.60;65.60
19947;DHT22;10135;50.702;7.276;2022-11-04T21:56:21;13.60;65.60
19947;DHT22;10135;50.702;7.276;2022-11-04T21:58:32;13.60;65.70
19947;DHT22;10135;50.702;7.276;2022-11-04T22:00:32;13.60;65.60
19947;DHT22;10135;50.702;7.276;2022-11-04T22:02:35;13.60;65.60
19947;DHT22;10135;50.702;7.276;2022-11-04T22:04:46;13.50;65.60
19947;DHT22;10135;50.702;7.276;2022-11-04T22:06:47;13.60;65.60
19947;DHT22;10135;50.702;7.276;2022-11-04T22:08:49;13.60;65.60
19947;DHT22;10135;50.702;7.276;2022-11-04T22:10:54;13.60;65.80
19947;DHT22;10135;50.702;7.276;2022-11-04T22:12:55;13.60;65.60
19947;DHT22;10135;50.702;7.276;2022-11-04T22:14:56;13.60;65.80
19947;DHT22;10135;50.702;7.276;2022-11-04T22:16:56;13.60;66.50
19947;DHT22;10135;50.702;7.276;2022-11-04T22:18:58;13.50;65.70
19947;DHT22;10135;50.702;7.276;2022-11-04T22:21:03;13.60;65.90
19947;DHT22;10135;50.702;7.276;2022-11-04T22:23:05;13.60;65.80
19947;DHT22;10135;50.702;7.276;2022-11-04T22:25:06;13.60;65.80
19947;DHT22;10135;50.702;7.276;2022-11-04T22:27:07;13.50;65.70
19947;DHT22;10135;50.702;7.276;2022-11-04T22:29:08;13.50;65.70
19947;DHT22;10135;50.702;7.276;2022-11-04T22:31:19;13.60;65.90
19947;DHT22;10135;50.702;7.276;2022-11-04T22:33:22;13.50;66.10